createdAt,value
2019-04-26T00:01:03.654Z,57.86
2019-04-26T00:03:40.995Z,57.82
2019-04-26T00:06:12.585Z,57.96
2019-04-26T00:08:44.090Z,58.16
2019-04-26T00:11:18.679Z,58.17
2019-04-26T00:13:58.745Z,58.26
2019-04-26T00:16:35.865Z,58.35
2019-04-26T00:19:06.234Z,58.39
2019-04-26T00:21:36.312Z,58.69
2019-04-26T00:24:06.159Z,59.24
2019-04-26T00:26:36.081Z,59.38
2019-04-26T00:29:06.572Z,59.49
2019-04-26T00:31:36.338Z,59.73
2019-04-26T00:34:05.975Z,59.86
2019-04-26T00:36:35.601Z,59.93
2019-04-26T00:39:07.319Z,59.98
2019-04-26T00:41:37.880Z,60.12
2019-04-26T00:44:08.077Z,60.16
2019-04-26T00:46:39.547Z,60.28
2019-04-26T00:49:12.606Z,60.25
2019-04-26T00:51:43.849Z,60.42
2019-04-26T00:54:14.169Z,60.57
2019-04-26T00:56:44.503Z,60.67
2019-04-26T00:59:16.388Z,60.57
2019-04-26T01:01:47.772Z,60.50
2019-04-26T01:04:18.777Z,60.78
2019-04-26T01:06:50.044Z,60.79
2019-04-26T01:09:19.767Z,60.85
2019-04-26T01:11:49.413Z,61.08
2019-04-26T01:14:19.960Z,61.23
2019-04-26T01:16:49.816Z,60.96
2019-04-26T01:19:20.625Z,61.10
2019-04-26T01:21:53.313Z,61.03
2019-04-26T01:24:25.365Z,60.96
2019-04-26T01:26:58.097Z,60.95
2019-04-26T01:29:28.381Z,61.16
2019-04-26T01:32:10.522Z,61.43
2019-04-26T01:34:41.897Z,61.62
2019-04-26T01:37:11.969Z,61.43
2019-04-26T01:39:46.326Z,61.33
2019-04-26T01:42:37.368Z,61.20
2019-04-26T01:45:14.970Z,61.30
2019-04-26T01:47:46.841Z,61.05
2019-04-26T01:50:16.714Z,60.94
2019-04-26T01:52:46.845Z,61.08
2019-04-26T01:55:17.723Z,60.88
2019-04-26T01:57:47.358Z,60.74
2019-04-26T02:00:22.886Z,60.69
2019-04-26T02:02:57.744Z,60.70
2019-04-26T02:05:28.018Z,60.90
2019-04-26T02:07:58.008Z,61.08
2019-04-26T02:10:28.740Z,61.37
2019-04-26T02:12:59.527Z,61.56
2019-04-26T02:15:33.354Z,61.70
2019-04-26T02:18:04.125Z,62.18
2019-04-26T02:20:56.399Z,62.21
2019-04-26T02:23:27.953Z,62.19
2019-04-26T02:25:59.238Z,61.97
2019-04-26T02:28:28.939Z,62.24
2019-04-26T02:30:59.549Z,62.63
2019-04-26T02:33:31.299Z,62.43
2019-04-26T02:36:00.694Z,62.18
2019-04-26T02:38:31.448Z,61.95
2019-04-26T02:41:01.804Z,61.78
2019-04-26T02:43:33.446Z,61.59
2019-04-26T02:46:10.053Z,61.89
2019-04-26T02:48:47.255Z,62.11
2019-04-26T02:51:20.199Z,62.74
2019-04-26T02:53:56.392Z,62.70
2019-04-26T02:56:30.270Z,62.48
2019-04-26T02:59:12.388Z,62.95
2019-04-26T03:01:42.199Z,63.65
2019-04-26T03:04:12.328Z,63.96
2019-04-26T03:07:01.894Z,64.36
2019-04-26T03:09:17.209Z,64.02
2019-04-26T03:12:02.042Z,63.62
2019-04-26T03:14:42.021Z,63.64
2019-04-26T03:17:17.249Z,64.47
2019-04-26T03:19:57.604Z,64.33
2019-04-26T03:22:51.627Z,64.42
2019-04-26T03:25:27.069Z,64.59
2019-04-26T03:28:05.861Z,64.04
2019-04-26T03:30:52.931Z,63.79
2019-04-26T03:33:53.238Z,63.64
2019-04-26T03:36:21.959Z,64.37
2019-04-26T03:39:20.392Z,64.79
2019-04-26T03:42:26.333Z,64.63
2019-04-26T03:44:59.049Z,64.66
2019-04-26T03:47:37.671Z,65.06
2019-04-26T03:50:21.284Z,65.54
2019-04-26T03:52:57.220Z,65.73
2019-04-26T03:55:34.573Z,65.79
2019-04-26T03:58:10.181Z,65.64
2019-04-26T04:01:00.555Z,65.34
2019-04-26T04:03:35.861Z,65.26
2019-04-26T04:06:10.075Z,64.91
2019-04-26T04:08:49.023Z,64.67
2019-04-26T04:11:22.126Z,64.54
2019-04-26T04:14:00.648Z,64.62
2019-04-26T04:16:50.193Z,64.69
2019-04-26T04:19:27.707Z,64.48
2019-04-26T04:22:09.893Z,64.24
2019-04-26T04:24:49.917Z,64.37
2019-04-26T04:27:28.526Z,64.14
2019-04-26T04:30:03.990Z,63.81
2019-04-26T04:32:43.811Z,63.68
2019-04-26T04:35:16.304Z,63.44
2019-04-26T04:38:05.516Z,63.34
2019-04-26T04:40:47.220Z,63.30
2019-04-26T04:43:30.507Z,63.14
2019-04-26T04:46:07.367Z,63.27
2019-04-26T04:48:49.074Z,63.38
2019-04-26T04:51:52.538Z,63.33
2019-04-26T04:55:01.649Z,63.37
2019-04-26T04:57:21.652Z,63.34
2019-04-26T04:59:54.378Z,63.42
2019-04-26T05:02:46.791Z,63.74
2019-04-26T05:05:39.141Z,63.99
2019-04-26T05:08:14.646Z,63.84
2019-04-26T05:11:06.716Z,63.62
2019-04-26T05:13:42.013Z,63.73
2019-04-26T05:16:16.365Z,63.77
2019-04-26T05:19:08.937Z,63.91
2019-04-26T05:21:53.783Z,63.89
2019-04-26T05:24:36.866Z,63.94
2019-04-26T05:27:16.684Z,64.00
2019-04-26T05:30:08.922Z,64.07
2019-04-26T05:32:50.879Z,64.10
2019-04-26T05:35:42.836Z,64.24
2019-04-26T05:38:21.277Z,64.37
2019-04-26T05:41:00.181Z,64.36
2019-04-26T05:44:02.870Z,64.54
2019-04-26T05:47:17.336Z,64.62
2019-04-26T05:50:21.731Z,64.58
2019-04-26T05:53:18.422Z,64.41
2019-04-26T05:56:21.425Z,64.42
2019-04-26T05:59:09.054Z,64.54
2019-04-26T06:02:07.399Z,64.60
2019-04-26T06:04:57.218Z,64.55
2019-04-26T06:07:50.923Z,64.64
2019-04-26T06:10:39.087Z,64.72
2019-04-26T06:13:22.361Z,64.64
2019-04-26T06:16:15.703Z,64.55
2019-04-26T06:19:12.219Z,64.57
2019-04-26T06:22:10.604Z,64.44
2019-04-26T06:25:00.429Z,64.51
2019-04-26T06:27:46.157Z,64.39
2019-04-26T06:30:19.445Z,64.37
2019-04-26T06:33:16.395Z,64.42
2019-04-26T06:35:49.526Z,64.67
2019-04-26T06:38:50.849Z,64.55
2019-04-26T06:42:05.338Z,64.46
2019-04-26T06:44:39.630Z,64.68
2019-04-26T06:47:19.891Z,64.57
2019-04-26T06:49:59.825Z,64.41
2019-04-26T06:52:32.627Z,64.54
2019-04-26T06:55:09.969Z,64.58
2019-04-26T06:58:03.437Z,64.96
2019-04-26T07:01:01.120Z,65.09
2019-04-26T07:03:45.920Z,65.33
2019-04-26T07:06:18.680Z,65.23
2019-04-26T07:08:57.605Z,65.56
2019-04-26T07:11:48.066Z,66.04
2019-04-26T07:14:37.539Z,66.05
2019-04-26T07:17:12.912Z,65.99
2019-04-26T07:20:06.168Z,65.98
2019-04-26T07:23:06.177Z,66.24
2019-04-26T07:25:57.860Z,66.35
2019-04-26T07:28:50.146Z,66.14
2019-04-26T07:31:38.157Z,66.12
2019-04-26T07:34:42.325Z,65.93
2019-04-26T07:37:37.706Z,66.13
2019-04-26T07:40:32.726Z,66.01
2019-04-26T07:43:30.019Z,65.83
2019-04-26T07:46:23.833Z,65.56
2019-04-26T07:49:12.544Z,65.19
2019-04-26T07:52:10.900Z,65.28
2019-04-26T07:55:11.098Z,64.79
2019-04-26T07:58:01.187Z,64.69
2019-04-26T08:00:44.637Z,64.61
2019-04-26T08:03:13.793Z,64.55
2019-04-26T08:05:57.828Z,64.45
2019-04-26T08:08:30.518Z,64.31
2019-04-26T08:11:12.864Z,64.00
2019-04-26T08:13:57.763Z,63.88
2019-04-26T08:16:48.356Z,62.22
2019-04-26T08:19:22.039Z,61.24
2019-04-26T08:21:54.588Z,60.23
2019-04-26T08:24:28.338Z,59.67
2019-04-26T08:27:19.664Z,59.28
2019-04-26T08:29:44.178Z,58.76
2019-04-26T08:32:18.559Z,58.15
2019-04-26T08:34:56.692Z,57.77
2019-04-26T08:37:49.395Z,57.48
2019-04-26T08:40:30.255Z,56.93
2019-04-26T08:43:12.297Z,56.31
2019-04-26T08:46:03.094Z,55.76
2019-04-26T08:48:51.624Z,55.37
2019-04-26T08:51:25.321Z,54.76
2019-04-26T08:53:55.987Z,54.28
2019-04-26T08:56:28.998Z,53.75
2019-04-26T08:59:04.790Z,53.47
2019-04-26T09:01:41.993Z,53.39
2019-04-26T09:04:15.870Z,53.02
2019-04-26T09:07:02.700Z,52.85
2019-04-26T09:09:36.016Z,52.50
2019-04-26T09:12:09.888Z,52.54
2019-04-26T09:14:42.730Z,52.04
2019-04-26T09:17:12.434Z,51.82
2019-04-26T09:19:42.070Z,51.71
2019-04-26T09:22:26.435Z,51.17
2019-04-26T09:25:10.689Z,51.26
2019-04-26T09:27:58.955Z,50.88
2019-04-26T09:30:42.331Z,50.81
2019-04-26T09:33:21.176Z,50.81
2019-04-26T09:35:50.851Z,50.07
2019-04-26T09:38:20.551Z,51.15
2019-04-26T09:40:52.755Z,50.67
2019-04-26T09:43:35.349Z,50.67
2019-04-26T09:46:12.656Z,52.13
2019-04-26T09:48:43.916Z,51.91
2019-04-26T09:51:13.655Z,51.91
2019-04-26T09:53:44.692Z,52.13
2019-04-26T09:56:14.487Z,52.13
2019-04-26T09:58:44.265Z,52.13
2019-04-26T10:01:14.066Z,52.02
2019-04-26T10:03:43.708Z,51.86
2019-04-26T10:06:13.387Z,52.26
2019-04-26T10:08:43.334Z,52.25
2019-04-26T10:11:16.008Z,52.47
2019-04-26T10:13:49.896Z,52.23
2019-04-26T10:16:27.265Z,52.22
2019-04-26T10:18:59.413Z,52.07
2019-04-26T10:21:29.457Z,52.04
2019-04-26T10:23:59.260Z,52.06
2019-04-26T10:26:29.969Z,52.12
2019-04-26T10:29:01.323Z,52.07
2019-04-26T10:31:31.321Z,51.92
2019-04-26T10:34:01.018Z,52.01
2019-04-26T10:36:32.461Z,51.57
2019-04-26T10:39:02.083Z,51.47
2019-04-26T10:41:31.746Z,50.88
2019-04-26T10:44:01.470Z,51.04
2019-04-26T10:46:31.387Z,50.75
2019-04-26T10:49:08.553Z,50.58
2019-04-26T10:51:38.623Z,50.62
2019-04-26T10:54:10.408Z,50.92
2019-04-26T10:56:44.667Z,50.30
2019-04-26T10:59:15.939Z,50.26
2019-04-26T11:01:45.671Z,50.75
2019-04-26T11:04:15.455Z,50.85
2019-04-26T11:06:45.175Z,51.39
2019-04-26T11:09:14.879Z,50.43
2019-04-26T11:11:44.514Z,51.08
2019-04-26T11:14:18.301Z,50.60
2019-04-26T11:16:45.507Z,50.34
2019-04-26T11:19:15.476Z,50.36
2019-04-26T11:21:45.355Z,50.11
2019-04-26T11:24:19.053Z,49.70
2019-04-26T11:26:46.414Z,49.64
2019-04-26T11:29:16.092Z,49.47
2019-04-26T11:31:45.737Z,49.61
2019-04-26T11:34:15.535Z,49.32
2019-04-26T11:36:45.339Z,49.42
2019-04-26T11:39:16.627Z,49.60
2019-04-26T11:41:46.531Z,49.36
2019-04-26T11:44:16.214Z,49.38
2019-04-26T11:46:46.007Z,49.29
2019-04-26T11:49:15.658Z,49.48
2019-04-26T11:51:45.386Z,49.14
2019-04-26T11:54:17.045Z,49.17
2019-04-26T11:56:46.812Z,48.76
2019-04-26T11:59:16.551Z,48.51
2019-04-26T12:01:46.209Z,47.92
2019-04-26T12:04:20.275Z,47.87
2019-04-26T12:07:03.957Z,47.58
2019-04-26T12:09:35.364Z,47.40
2019-04-26T12:12:09.102Z,47.10
2019-04-26T12:14:36.980Z,46.93
2019-04-26T12:17:06.613Z,46.71
2019-04-26T12:19:36.413Z,46.41
2019-04-26T12:22:08.278Z,46.01
2019-04-26T12:24:37.616Z,45.39
2019-04-26T12:27:10.211Z,44.29
2019-04-26T12:29:38.795Z,43.15
2019-04-26T12:32:08.424Z,41.30
2019-04-26T12:34:38.050Z,40.21
2019-04-26T12:37:07.776Z,40.19
2019-04-26T12:39:40.709Z,40.51
2019-04-26T12:42:12.351Z,40.65
2019-04-26T12:44:52.615Z,41.27
2019-04-26T12:47:23.938Z,41.81
2019-04-26T12:49:54.593Z,43.02
2019-04-26T12:52:24.969Z,43.19
2019-04-26T12:54:57.588Z,43.44
2019-04-26T12:57:26.305Z,43.72
2019-04-26T12:59:57.667Z,44.00
2019-04-26T13:02:27.631Z,44.97
2019-04-26T13:04:57.329Z,45.38
2019-04-26T13:07:27.040Z,45.05
2019-04-26T13:10:04.307Z,44.66
2019-04-26T13:12:52.097Z,44.04
2019-04-26T13:16:04.239Z,43.76
2019-04-26T13:18:34.065Z,43.59
2019-04-26T13:21:04.368Z,43.99
2019-04-26T13:23:34.316Z,44.44
2019-04-26T13:26:04.170Z,44.64
2019-04-26T13:28:33.873Z,44.97
2019-04-26T13:31:03.529Z,45.29
2019-04-26T13:33:33.219Z,45.49
2019-04-26T13:36:03.331Z,45.52
2019-04-26T13:38:33.219Z,45.63
2019-04-26T13:41:04.629Z,45.19
2019-04-26T13:43:34.363Z,43.99
2019-04-26T13:46:08.443Z,42.02
2019-04-26T13:48:43.649Z,38.53
2019-04-26T13:51:18.212Z,35.70
2019-04-26T13:53:47.892Z,34.89
2019-04-26T13:56:17.532Z,35.67
2019-04-26T13:58:47.982Z,36.82
2019-04-26T14:01:18.599Z,37.80
2019-04-26T14:03:49.566Z,38.59
2019-04-26T14:06:19.273Z,39.23
2019-04-26T14:08:48.987Z,39.58
2019-04-26T14:11:20.073Z,39.60
2019-04-26T14:13:50.018Z,39.99
2019-04-26T14:16:21.218Z,40.57
2019-04-26T14:18:51.086Z,40.72
2019-04-26T14:21:20.737Z,40.72
2019-04-26T14:23:54.787Z,40.69
2019-04-26T14:26:41.552Z,40.49
2019-04-26T14:29:11.430Z,40.48
2019-04-26T14:31:41.126Z,40.46
2019-04-26T14:34:12.101Z,40.47
2019-04-26T14:36:43.701Z,40.34
2019-04-26T14:39:14.882Z,40.35
2019-04-26T14:41:44.737Z,40.50
2019-04-26T14:44:15.997Z,40.36
2019-04-26T14:46:48.951Z,40.03
2019-04-26T14:49:19.129Z,39.73
2019-04-26T14:51:53.923Z,39.80
2019-04-26T14:54:21.893Z,39.44
2019-04-26T14:56:52.547Z,39.52
2019-04-26T14:59:44.344Z,39.35
2019-04-26T15:02:26.085Z,39.46
2019-04-26T15:05:16.821Z,39.32
2019-04-26T15:07:51.064Z,39.30
2019-04-26T15:10:20.577Z,39.25
2019-04-26T15:12:58.352Z,39.84
2019-04-26T15:15:21.642Z,39.51
2019-04-26T15:17:55.148Z,39.62
2019-04-26T15:20:24.394Z,39.27
2019-04-26T15:22:54.133Z,39.36
2019-04-26T15:25:23.751Z,39.24
2019-04-26T15:27:54.527Z,39.14
2019-04-26T15:30:24.645Z,39.37
2019-04-26T15:32:56.234Z,39.66
2019-04-26T15:35:28.347Z,39.81
2019-04-26T15:38:01.454Z,39.92
2019-04-26T15:40:48.522Z,40.02
2019-04-26T15:43:25.850Z,39.93
2019-04-26T15:45:59.984Z,40.02
2019-04-26T15:48:50.309Z,40.18
2019-04-26T15:51:24.461Z,40.21
2019-04-26T15:53:53.089Z,40.23
2019-04-26T15:56:24.449Z,40.41
2019-04-26T15:58:54.119Z,40.36
2019-04-26T16:01:24.497Z,40.55
2019-04-26T16:03:55.310Z,40.48
2019-04-26T16:06:25.148Z,40.10
2019-04-26T16:08:55.737Z,39.81
2019-04-26T16:11:25.838Z,40.17
2019-04-26T16:13:56.615Z,40.50
2019-04-26T16:16:29.188Z,40.74
2019-04-26T16:18:59.181Z,41.02
2019-04-26T16:21:28.890Z,41.11
2019-04-26T16:23:58.552Z,41.18
2019-04-26T16:26:30.411Z,41.34
2019-04-26T16:29:05.157Z,41.59
2019-04-26T16:31:53.315Z,41.91
2019-04-26T16:34:26.247Z,42.22
2019-04-26T16:36:59.686Z,42.38
2019-04-26T16:39:38.348Z,42.65
2019-04-26T16:42:05.028Z,42.85
2019-04-26T16:44:33.483Z,42.97
2019-04-26T16:47:05.984Z,43.26
2019-04-26T16:49:42.054Z,43.38
2019-04-26T16:52:07.533Z,43.67
2019-04-26T16:54:37.299Z,43.85
2019-04-26T16:57:11.410Z,44.06
2019-04-26T16:59:46.625Z,44.17
2019-04-26T17:02:09.718Z,44.31
2019-04-26T17:04:40.572Z,44.37
2019-04-26T17:07:10.211Z,44.52
2019-04-26T17:09:57.168Z,44.79
2019-04-26T17:12:15.070Z,44.93
2019-04-26T17:14:47.514Z,45.32
2019-04-26T17:17:14.438Z,45.46
2019-04-26T17:19:44.108Z,45.68
2019-04-26T17:22:24.487Z,45.90
2019-04-26T17:24:55.827Z,46.28
2019-04-26T17:27:26.405Z,46.40
2019-04-26T17:29:56.039Z,46.57
2019-04-26T17:32:25.776Z,46.80
2019-04-26T17:34:59.748Z,46.88
2019-04-26T17:37:30.533Z,47.04
2019-04-26T17:40:00.834Z,46.99
2019-04-26T17:42:36.502Z,47.11
2019-04-26T17:45:06.791Z,47.05
2019-04-26T17:47:36.745Z,47.00
2019-04-26T17:50:06.543Z,47.07
2019-04-26T17:52:37.790Z,47.33
2019-04-26T17:55:14.242Z,47.28
2019-04-26T17:57:48.364Z,47.22
2019-04-26T18:00:20.805Z,47.36
2019-04-26T18:02:50.729Z,47.52
2019-04-26T18:05:24.465Z,47.49
2019-04-26T18:07:58.450Z,47.51
2019-04-26T18:10:23.962Z,47.71
2019-04-26T18:12:54.572Z,47.86
2019-04-26T18:15:24.341Z,48.05
2019-04-26T18:17:55.632Z,48.18
2019-04-26T18:20:26.901Z,48.32
2019-04-26T18:23:10.015Z,48.34
2019-04-26T18:25:41.203Z,48.69
2019-04-26T18:28:13.240Z,48.70
2019-04-26T18:30:44.864Z,48.88
2019-04-26T18:33:17.545Z,49.09
2019-04-26T18:35:49.235Z,49.39
2019-04-26T18:38:17.254Z,49.39
2019-04-26T18:41:00.014Z,49.56
2019-04-26T18:43:23.893Z,49.89
2019-04-26T18:45:53.178Z,49.89
2019-04-26T18:48:23.630Z,49.86
2019-04-26T18:50:53.363Z,49.92
2019-04-26T18:53:24.712Z,49.96
2019-04-26T18:55:54.824Z,50.19
2019-04-26T18:58:24.525Z,50.35
2019-04-26T19:00:57.455Z,50.24
2019-04-26T19:03:29.942Z,50.52
2019-04-26T19:05:58.418Z,51.17
2019-04-26T19:08:28.966Z,51.71
2019-04-26T19:11:03.044Z,51.99
2019-04-26T19:13:44.958Z,52.32
2019-04-26T19:16:25.005Z,52.72
2019-04-26T19:18:56.320Z,52.96
2019-04-26T19:21:39.015Z,53.03
2019-04-26T19:24:11.526Z,53.13
2019-04-26T19:26:36.756Z,53.08
2019-04-26T19:29:17.515Z,52.95
2019-04-26T19:31:37.862Z,52.62
2019-04-26T19:34:07.508Z,52.46
2019-04-26T19:36:37.141Z,52.51
2019-04-26T19:39:07.849Z,52.67
2019-04-26T19:41:37.484Z,52.99
2019-04-26T19:44:07.124Z,53.18
2019-04-26T19:46:38.886Z,53.31
2019-04-26T19:49:30.028Z,53.69
2019-04-26T19:52:04.703Z,53.88
2019-04-26T19:54:38.705Z,54.06
2019-04-26T19:57:15.675Z,54.20
2019-04-26T19:59:45.315Z,54.29
2019-04-26T20:02:17.176Z,54.40
2019-04-26T20:04:47.109Z,54.42
2019-04-26T20:07:16.805Z,54.52
2019-04-26T20:09:46.406Z,54.63
2019-04-26T20:12:16.287Z,54.72
2019-04-26T20:14:51.093Z,54.86
2019-04-26T20:17:20.351Z,55.17
2019-04-26T20:19:53.957Z,55.09
2019-04-26T20:22:28.436Z,55.07
2019-04-26T20:24:57.660Z,55.29
2019-04-26T20:27:27.981Z,55.32
2019-04-26T20:30:02.154Z,55.46
2019-04-26T20:32:33.681Z,55.57
2019-04-26T20:35:14.713Z,55.44
2019-04-26T20:37:45.156Z,55.53
2019-04-26T20:40:22.249Z,55.64
2019-04-26T20:42:48.485Z,55.51
2019-04-26T20:45:19.298Z,55.66
2019-04-26T20:47:51.993Z,56.07
2019-04-26T20:50:21.771Z,56.36
2019-04-26T20:52:55.527Z,56.65
2019-04-26T20:55:30.389Z,56.74
2019-04-26T20:57:59.882Z,56.87
2019-04-26T21:00:31.623Z,56.73
2019-04-26T21:03:05.780Z,56.78
2019-04-26T21:05:45.347Z,56.49
2019-04-26T21:08:04.481Z,56.44
2019-04-26T21:10:35.906Z,56.38
2019-04-26T21:13:05.812Z,56.30
2019-04-26T21:15:36.134Z,56.27
2019-04-26T21:18:05.973Z,56.56
2019-04-26T21:20:36.571Z,56.47
2019-04-26T21:23:06.407Z,56.59
2019-04-26T21:25:43.768Z,56.61
2019-04-26T21:28:17.460Z,56.61
2019-04-26T21:31:03.479Z,56.82
2019-04-26T21:33:38.755Z,56.79
2019-04-26T21:36:06.536Z,56.83
2019-04-26T21:38:43.951Z,56.95
2019-04-26T21:41:18.395Z,57.19
2019-04-26T21:43:48.268Z,57.86
2019-04-26T21:46:19.219Z,57.75
2019-04-26T21:48:49.372Z,57.58
2019-04-26T21:51:19.005Z,57.46
2019-04-26T21:53:48.639Z,57.25
2019-04-26T21:56:18.338Z,57.25
2019-04-26T21:58:48.165Z,57.30
2019-04-26T22:01:21.136Z,57.13
2019-04-26T22:03:57.038Z,57.17
2019-04-26T22:06:27.274Z,57.28
2019-04-26T22:08:58.693Z,57.58
2019-04-26T22:11:26.669Z,57.65
2019-04-26T22:13:58.018Z,57.88
2019-04-26T22:16:35.951Z,58.29
2019-04-26T22:19:23.907Z,58.41
2019-04-26T22:22:06.840Z,58.41
2019-04-26T22:24:40.385Z,58.35
2019-04-26T22:27:10.080Z,58.48
2019-04-26T22:29:39.793Z,58.72
2019-04-26T22:32:11.579Z,58.87
2019-04-26T22:34:46.037Z,58.95
2019-04-26T22:37:18.915Z,59.16
2019-04-26T22:39:47.548Z,59.31
2019-04-26T22:42:17.877Z,59.03
2019-04-26T22:44:49.162Z,58.96
2019-04-26T22:47:20.475Z,59.00
2019-04-26T22:49:50.122Z,59.08
2019-04-26T22:52:19.826Z,59.06
2019-04-26T22:54:49.525Z,59.30
2019-04-26T22:57:19.419Z,59.29
2019-04-26T22:59:50.510Z,59.46
2019-04-26T23:02:25.395Z,59.70
2019-04-26T23:04:56.054Z,59.75
2019-04-26T23:07:26.126Z,59.91
2019-04-26T23:09:55.422Z,59.94
2019-04-26T23:12:44.066Z,59.77
2019-04-26T23:15:30.226Z,59.54
2019-04-26T23:18:08.210Z,59.33
2019-04-26T23:20:39.828Z,59.75
2019-04-26T23:23:09.525Z,59.75
2019-04-26T23:25:39.240Z,59.62
2019-04-26T23:28:09.224Z,59.83
2019-04-26T23:30:38.941Z,59.73
2019-04-26T23:33:08.748Z,59.59
2019-04-26T23:35:43.519Z,59.58
2019-04-26T23:38:09.762Z,59.86
2019-04-26T23:40:39.401Z,60.10
2019-04-26T23:43:09.367Z,59.95
2019-04-26T23:45:41.999Z,59.89
2019-04-26T23:48:12.100Z,59.89
2019-04-26T23:50:42.970Z,59.91
2019-04-26T23:53:13.874Z,59.90
2019-04-26T23:55:45.316Z,59.79
2019-04-26T23:58:15.961Z,59.99
